Time;durP1;ratioP1;P1;durP2;ratioP2;P2;SDS_P1;SDS_P2;PMS_P1;PMS_P2;Temp;Humidity;BMP_temperature;BMP_pressure;BME280_temperature;BME280_humidity;BME280_pressure;Samples;Min_cycle;Max_cycle;Signal;HPM_P1;HPM_P2
2022/05/06 00:01:00;;;;;;;44.65;24.02;;;;;;;-143.53;100.00;58366.03;2074136;28;20562;-69
2022/05/06 00:02:03;;;;;;;48.95;23.08;;;;;;;-143.53;100.00;58366.03;2086491;28;20211;-68
2022/05/06 00:03:05;;;;;;;39.88;21.63;;;;;;;-143.53;100.00;58366.03;2080104;28;20197;-69
2022/05/06 00:04:07;;;;;;;47.20;24.05;;;;;;;-143.53;100.00;58366.03;2083391;28;20188;-69
2022/05/06 00:05:11;;;;;;;46.47;23.27;;;;;;;-143.53;100.00;58366.03;2082344;28;20201;-69
2022/05/06 00:06:13;;;;;;;46.70;24.65;;;;;;;-143.53;100.00;58366.03;2074705;28;21095;-68
2022/05/06 00:07:15;;;;;;;46.50;24.85;;;;;;;-143.53;100.00;58366.03;2083907;28;20200;-69
2022/05/06 00:08:16;;;;;;;55.25;23.27;;;;;;;-143.53;100.00;58366.03;2088172;28;20239;-69
2022/05/06 00:09:18;;;;;;;44.90;22.38;;;;;;;-143.53;100.00;58366.03;2084922;28;20197;-69
2022/05/06 00:10:19;;;;;;;42.83;21.70;;;;;;;-143.53;100.00;58366.03;2086603;28;20212;-69
2022/05/06 00:11:22;;;;;;;44.70;23.60;;;;;;;-143.53;100.00;58366.03;2078489;28;20242;-68
2022/05/06 00:12:23;;;;;;;47.08;25.15;;;;;;;-143.53;100.00;58366.03;2089069;28;20204;-69
2022/05/06 00:13:25;;;;;;;45.38;22.83;;;;;;;-143.53;100.00;58366.03;2084862;28;20676;-68
2022/05/06 00:14:26;;;;;;;38.20;22.27;;;;;;;-143.53;100.00;58366.03;2085965;28;20247;-69
2022/05/06 00:15:28;;;;;;;40.17;24.17;;;;;;;-143.53;100.00;58366.03;2087212;28;20690;-69
2022/05/06 00:16:29;;;;;;;50.10;24.95;;;;;;;-143.53;100.00;58366.03;2077559;28;20695;-69
2022/05/06 00:17:31;;;;;;;48.20;24.65;;;;;;;-143.53;100.00;58366.03;2087927;28;20206;-69
2022/05/06 00:18:33;;;;;;;51.50;24.65;;;;;;;-143.53;100.00;58366.03;2083905;28;20258;-69
2022/05/06 00:19:34;;;;;;;46.58;23.50;;;;;;;-143.53;100.00;58366.03;2081868;28;20308;-68
2022/05/06 00:20:36;;;;;;;45.63;24.30;;;;;;;-143.53;100.00;58366.03;2082170;28;20193;-69
2022/05/06 00:21:38;;;;;;;39.05;23.90;;;;;;;-143.53;100.00;58366.03;2077173;28;20254;-69
2022/05/06 00:22:39;;;;;;;48.97;23.30;;;;;;;-143.53;100.00;58366.03;2086023;28;20198;-69
2022/05/06 00:23:41;;;;;;;43.35;22.98;;;;;;;-143.53;100.00;58366.03;2085407;28;20202;-69
2022/05/06 00:24:42;;;;;;;40.65;22.85;;;;;;;-143.53;100.00;58366.03;2084104;28;20211;-69
2022/05/06 00:25:44;;;;;;;43.53;23.17;;;;;;;-143.53;100.00;58366.03;2072549;28;20227;-68
2022/05/06 00:26:45;;;;;;;38.67;22.52;;;;;;;-143.53;100.00;58366.03;2082710;28;20200;-69
2022/05/06 00:27:47;;;;;;;44.10;21.98;;;;;;;-143.53;100.00;58366.03;2091808;28;20199;-68
2022/05/06 00:28:48;;;;;;;53.90;23.00;;;;;;;-143.53;100.00;58366.03;2084170;28;20209;-69
2022/05/06 00:29:50;;;;;;;43.30;22.02;;;;;;;-143.53;100.00;58366.03;2084477;28;20196;-69
2022/05/06 00:30:52;;;;;;;34.40;20.92;;;;;;;-143.53;100.00;58366.03;2075039;28;20213;-69
2022/05/06 00:31:53;;;;;;;40.85;21.02;;;;;;;-143.53;100.00;58366.03;2086925;28;20393;-69
2022/05/06 00:32:55;;;;;;;44.78;22.50;;;;;;;-143.53;100.00;58366.03;2086736;28;20197;-69
2022/05/06 00:33:56;;;;;;;43.50;22.95;;;;;;;-143.53;100.00;58366.03;2085493;28;20189;-69
2022/05/06 00:34:58;;;;;;;43.25;23.05;;;;;;;-143.53;100.00;58366.03;2085358;28;20287;-69
2022/05/06 00:36:02;;;;;;;40.80;20.60;;;;;;;-143.53;100.00;58366.03;2074090;28;20211;-69
2022/05/06 00:37:04;;;;;;;45.30;22.23;;;;;;;-143.53;100.00;58366.03;2091726;28;20239;-69
2022/05/06 00:38:05;;;;;;;41.95;21.55;;;;;;;-143.53;100.00;58366.03;2086733;28;20196;-68
2022/05/06 00:39:07;;;;;;;44.15;23.20;;;;;;;-143.53;100.00;58366.03;2085159;28;20513;-69
2022/05/06 00:40:09;;;;;;;48.92;21.80;;;;;;;-143.53;100.00;58366.03;2084591;28;20201;-68
2022/05/06 00:41:10;;;;;;;37.17;21.63;;;;;;;-143.53;100.00;58366.03;2074815;28;20220;-68
2022/05/06 00:42:12;;;;;;;37.80;21.10;;;;;;;-143.53;100.00;58366.03;2087464;28;20203;-69
2022/05/06 00:43:13;;;;;;;35.13;20.70;;;;;;;-143.53;100.00;58366.03;2081458;28;20200;-69
2022/05/06 00:44:15;;;;;;;37.53;20.48;;;;;;;-143.53;100.00;58366.03;2084108;28;20193;-69
2022/05/06 00:45:17;;;;;;;40.72;23.13;;;;;;;-143.53;100.00;58366.03;2083225;28;20195;-68
2022/05/06 00:46:19;;;;;;;38.15;21.80;;;;;;;-143.53;100.00;58366.03;2075901;28;20220;-69
2022/05/06 00:47:22;;;;;;;49.25;22.00;;;;;;;-143.53;100.00;58366.03;2084280;28;20258;-68
2022/05/06 00:48:27;;;;;;;39.97;19.63;;;;;;;-143.53;100.00;58366.03;2083244;28;20201;-69
2022/05/06 00:49:29;;;;;;;36.53;20.05;;;;;;;-143.53;100.00;58366.03;2079368;28;20199;-68
2022/05/06 00:50:32;;;;;;;39.70;21.25;;;;;;;-143.53;100.00;58366.03;2081464;28;20220;-68
2022/05/06 00:51:34;;;;;;;43.72;21.15;;;;;;;-143.53;100.00;58366.03;2079844;28;20217;-68
2022/05/06 00:52:36;;;;;;;36.95;19.67;;;;;;;-143.53;100.00;58366.03;2093203;28;20199;-68
2022/05/06 00:53:39;;;;;;;41.97;22.05;;;;;;;-143.53;100.00;58366.03;2083639;28;20190;-68
2022/05/06 00:54:41;;;;;;;43.15;21.40;;;;;;;-143.53;100.00;58366.03;2084184;28;20201;-69
2022/05/06 00:55:43;;;;;;;46.15;21.20;;;;;;;-143.53;100.00;58366.03;2080107;28;20193;-68
2022/05/06 00:56:46;;;;;;;54.97;21.40;;;;;;;-143.53;100.00;58366.03;2086947;28;20205;-68
2022/05/06 00:57:47;;;;;;;46.72;22.38;;;;;;;-143.53;100.00;58366.03;2083485;28;20197;-69
2022/05/06 00:58:49;;;;;;;37.47;19.88;;;;;;;-143.53;100.00;58366.03;2084296;28;20192;-68
2022/05/06 01:01:11;;;;;;;45.58;22.20;;;;;;;-143.53;100.00;58366.03;2076189;28;20266;-68
2022/05/06 01:02:13;;;;;;;42.30;19.95;;;;;;;-143.53;100.00;58366.03;2090322;28;20200;-69
2022/05/06 01:03:18;;;;;;;41.60;20.77;;;;;;;-143.53;100.00;58366.03;2085805;28;20199;-68
2022/05/06 01:04:20;;;;;;;36.05;21.20;;;;;;;-143.53;100.00;58366.03;2083939;28;20232;-68
2022/05/06 01:05:24;;;;;;;40.05;20.92;;;;;;;-143.53;100.00;58366.03;2082785;28;20581;-69
2022/05/06 01:06:26;;;;;;;41.63;21.15;;;;;;;-143.53;100.00;58366.03;2071287;28;20243;-69
2022/05/06 01:07:28;;;;;;;37.97;19.75;;;;;;;-143.53;100.00;58366.03;2091547;28;20708;-68
2022/05/06 01:08:30;;;;;;;34.67;19.85;;;;;;;-143.53;100.00;58366.03;2086850;28;20248;-69
2022/05/06 01:09:31;;;;;;;34.75;20.20;;;;;;;-143.53;100.00;58366.03;2085318;28;20203;-68
2022/05/06 01:10:35;;;;;;;36.30;19.90;;;;;;;-143.53;100.00;58366.03;2081201;28;20555;-68
2022/05/06 01:11:36;;;;;;;38.30;20.25;;;;;;;-143.53;100.00;58366.03;2075397;28;20262;-68
2022/05/06 01:12:38;;;;;;;41.53;20.77;;;;;;;-143.53;100.00;58366.03;2086225;28;20192;-69
2022/05/06 01:13:42;;;;;;;37.65;19.48;;;;;;;-143.53;100.00;58366.03;2084485;28;20200;-69
2022/05/06 01:14:43;;;;;;;41.20;20.50;;;;;;;-143.53;100.00;58366.03;2085044;28;20196;-69
2022/05/06 01:15:45;;;;;;;33.97;19.30;;;;;;;-143.53;100.00;58366.03;2073698;28;20198;-68
2022/05/06 01:16:46;;;;;;;37.17;19.58;;;;;;;-143.53;100.00;58366.03;2078879;28;20224;-68
2022/05/06 01:17:50;;;;;;;42.13;20.20;;;;;;;-143.53;100.00;58366.03;2083817;28;20200;-68
2022/05/06 01:18:52;;;;;;;36.08;20.25;;;;;;;-143.53;100.00;58366.03;2080923;28;20201;-68
2022/05/06 01:19:53;;;;;;;37.35;18.95;;;;;;;-143.53;100.00;58366.03;2083476;28;20217;-69
2022/05/06 01:20:58;;;;;;;34.75;18.30;;;;;;;-143.53;100.00;58366.03;2074848;28;20201;-68
2022/05/06 01:22:00;;;;;;;40.05;19.20;;;;;;;-143.53;100.00;58366.03;2087820;28;20196;-68
2022/05/06 01:23:02;;;;;;;37.83;19.40;;;;;;;-143.53;100.00;58366.03;2085305;28;20204;-69
2022/05/06 01:24:04;;;;;;;37.45;18.63;;;;;;;-143.53;100.00;58366.03;2083126;28;20210;-69
2022/05/06 01:25:05;;;;;;;38.53;22.13;;;;;;;-143.53;100.00;58366.03;2082991;28;20197;-69
2022/05/06 01:26:07;;;;;;;32.65;18.48;;;;;;;-143.53;100.00;58366.03;2074426;28;20221;-69
2022/05/06 01:27:14;;;;;;;47.40;20.10;;;;;;;-143.53;100.00;58366.03;2087396;28;20197;-69
2022/05/06 01:28:16;;;;;;;33.22;19.27;;;;;;;-143.53;100.00;58366.03;2084512;28;20196;-68
2022/05/06 01:29:20;;;;;;;34.35;18.77;;;;;;;-143.53;100.00;58366.03;2082711;28;20223;-69
2022/05/06 01:30:24;;;;;;;39.03;20.20;;;;;;;-143.53;100.00;58366.03;2084069;28;20196;-68
2022/05/06 01:31:26;;;;;;;37.85;20.48;;;;;;;-143.53;100.00;58366.03;2077282;28;20220;-68
2022/05/06 01:32:29;;;;;;;37.65;18.67;;;;;;;-143.53;100.00;58366.03;2089122;28;20209;-69
2022/05/06 01:33:31;;;;;;;35.08;18.92;;;;;;;-143.53;100.00;58366.03;2085600;28;20219;-68
2022/05/06 01:34:38;;;;;;;35.35;19.50;;;;;;;-143.53;100.00;58366.03;2085404;28;20573;-68
2022/05/06 01:35:45;;;;;;;41.53;19.58;;;;;;;-143.53;100.00;58366.03;2085027;28;20192;-68
2022/05/06 01:36:49;;;;;;;40.75;20.00;;;;;;;-143.53;100.00;58366.03;2084898;28;20217;-68
2022/05/06 01:37:54;;;;;;;39.00;19.85;;;;;;;-143.53;100.00;58366.03;2085497;28;20208;-68
2022/05/06 01:39:00;;;;;;;42.53;20.20;;;;;;;-143.53;100.00;58366.03;2072410;28;20206;-69
2022/05/06 01:40:04;;;;;;;36.13;19.73;;;;;;;-143.53;100.00;58366.03;2080787;28;20196;-68
2022/05/06 01:41:21;;;;;;;39.50;20.95;;;;;;;-143.53;100.00;58366.03;2075570;28;20219;-69
2022/05/06 01:42:24;;;;;;;34.25;18.77;;;;;;;-143.53;100.00;58366.03;2086674;28;20590;-68
2022/05/06 01:43:27;;;;;;;37.33;19.83;;;;;;;-143.53;100.00;58366.03;2090380;28;20207;-69
2022/05/06 01:44:34;;;;;;;36.85;18.73;;;;;;;-143.53;100.00;58366.03;2088807;28;20197;-68
2022/05/06 01:45:37;;;;;;;37.13;19.98;;;;;;;-143.53;100.00;58366.03;2082607;28;20234;-69
2022/05/06 01:46:38;;;;;;;31.67;18.63;;;;;;;-143.53;100.00;58366.03;2078192;28;20231;-68
2022/05/06 01:47:40;;;;;;;37.72;20.65;;;;;;;-143.53;100.00;58366.03;2088994;28;20192;-68
2022/05/06 01:48:44;;;;;;;36.03;18.10;;;;;;;-143.53;100.00;58366.03;2085374;28;20807;-68
2022/05/06 01:49:46;;;;;;;38.03;19.42;;;;;;;-143.53;100.00;58366.03;2085694;28;20200;-69
2022/05/06 01:50:49;;;;;;;37.67;20.23;;;;;;;-143.53;100.00;58366.03;2073986;28;20196;-68
2022/05/06 01:51:53;;;;;;;37.97;20.60;;;;;;;-143.53;100.00;58366.03;2092358;28;20284;-68
2022/05/06 01:52:56;;;;;;;39.13;21.05;;;;;;;-143.53;100.00;58366.03;2093047;28;20204;-69
2022/05/06 01:53:58;;;;;;;35.55;20.80;;;;;;;-143.53;100.00;58366.03;2087026;28;20209;-68
2022/05/06 01:55:01;;;;;;;39.88;20.25;;;;;;;-143.53;100.00;58366.03;2085454;28;20208;-69
2022/05/06 01:56:03;;;;;;;40.90;20.95;;;;;;;-143.53;100.00;58366.03;2076393;28;20224;-68
2022/05/06 01:57:05;;;;;;;36.45;21.67;;;;;;;-143.53;100.00;58366.03;2094140;28;20548;-69
2022/05/06 01:58:07;;;;;;;34.70;20.02;;;;;;;-143.53;100.00;58366.03;2091462;28;20204;-68
2022/05/06 01:59:08;;;;;;;44.22;21.20;;;;;;;-143.53;100.00;58366.03;2085103;28;20197;-69
2022/05/06 02:00:12;;;;;;;37.00;19.83;;;;;;;-143.53;100.00;58366.03;2084815;28;20552;-68
2022/05/06 02:01:29;;;;;;;39.30;21.25;;;;;;;-143.53;100.00;58366.03;2062490;28;20741;-68
2022/05/06 02:02:31;;;;;;;36.13;19.77;;;;;;;-143.53;100.00;58366.03;2061490;28;20241;-69
2022/05/06 02:06:12;;;;;;;53.58;22.17;;;;;;;-143.53;100.00;58366.03;2053645;28;20225;-69
2022/05/06 02:07:14;;;;;;;37.40;20.10;;;;;;;-143.53;100.00;58366.03;2062573;28;20200;-70
2022/05/06 02:08:15;;;;;;;36.38;19.85;;;;;;;-143.53;100.00;58366.03;2055652;28;20230;-71
2022/05/06 02:09:17;;;;;;;43.20;22.73;;;;;;;-143.53;100.00;58366.03;2054405;28;20214;-71
2022/05/06 02:10:20;;;;;;;38.65;23.10;;;;;;;-143.53;100.00;58366.03;2055731;28;20210;-71
2022/05/06 02:11:22;;;;;;;41.92;21.88;;;;;;;-143.53;100.00;58366.03;2051675;28;20227;-68
2022/05/06 02:12:23;;;;;;;51.15;22.35;;;;;;;-143.53;100.00;58366.03;2062139;28;20709;-66
2022/05/06 02:13:25;;;;;;;43.10;24.20;;;;;;;-143.53;100.00;58366.03;2061494;28;20709;-64
2022/05/06 02:14:27;;;;;;;45.88;22.60;;;;;;;-143.53;100.00;58366.03;2061668;28;20203;-64
2022/05/06 02:15:29;;;;;;;52.42;24.92;;;;;;;-143.53;100.00;58366.03;2059510;28;20559;-65
2022/05/06 02:16:31;;;;;;;50.92;26.15;;;;;;;-143.53;100.00;58366.03;2049605;28;20227;-64
2022/05/06 02:17:32;;;;;;;46.22;26.40;;;;;;;-143.53;100.00;58366.03;2060513;28;20212;-65
2022/05/06 02:18:34;;;;;;;47.75;25.60;;;;;;;-143.53;100.00;58366.03;2062668;28;20230;-64
2022/05/06 02:19:35;;;;;;;41.58;24.33;;;;;;;-143.53;100.00;58366.03;2062699;28;20199;-64
2022/05/06 02:20:37;;;;;;;44.65;26.08;;;;;;;-143.53;100.00;58366.03;2063339;28;20642;-64
2022/05/06 02:21:38;;;;;;;52.67;26.30;;;;;;;-143.53;100.00;58366.03;2053824;28;20214;-64
2022/05/06 02:22:43;;;;;;;50.28;25.02;;;;;;;-143.53;100.00;58366.03;2063234;28;20706;-64
2022/05/06 02:23:45;;;;;;;48.95;26.42;;;;;;;-143.53;100.00;58366.03;2063440;28;20210;-63
2022/05/06 02:24:46;;;;;;;45.83;26.00;;;;;;;-143.53;100.00;58366.03;2062336;28;20202;-64
2022/05/06 02:25:48;;;;;;;46.78;24.98;;;;;;;-143.53;100.00;58366.03;2053256;28;20711;-63
2022/05/06 02:26:50;;;;;;;48.67;26.02;;;;;;;-143.53;100.00;58366.03;2062887;28;20226;-63
2022/05/06 02:27:51;;;;;;;68.05;27.05;;;;;;;-143.53;100.00;58366.03;2063238;28;20206;-64
2022/05/06 02:28:53;;;;;;;55.67;26.55;;;;;;;-143.53;100.00;58366.03;2061979;28;20203;-63
2022/05/06 02:33:55;;;;;;;55.45;26.65;;;;;;;-143.53;100.00;58366.03;2083642;28;20212;-64
2022/05/06 02:34:56;;;;;;;56.08;27.05;;;;;;;-143.53;100.00;58366.03;2083402;28;20534;-64
2022/05/06 02:35:59;;;;;;;50.65;25.52;;;;;;;-143.53;100.00;58366.03;2075410;28;20664;-64
2022/05/06 02:37:00;;;;;;;48.67;25.77;;;;;;;-143.53;100.00;58366.03;2088201;28;20751;-64
2022/05/06 02:38:03;;;;;;;46.92;25.75;;;;;;;-143.53;100.00;58366.03;2085998;28;20521;-64
2022/05/06 02:39:04;;;;;;;47.25;24.65;;;;;;;-143.53;100.00;58366.03;2084140;28;20229;-65
2022/05/06 02:40:08;;;;;;;50.65;27.65;;;;;;;-143.53;100.00;58366.03;2083694;28;20197;-65
2022/05/06 02:41:10;;;;;;;44.65;23.85;;;;;;;-143.53;100.00;58366.03;2077609;28;20224;-65
2022/05/06 02:42:11;;;;;;;61.05;28.92;;;;;;;-143.53;100.00;58366.03;2085829;28;20660;-65
2022/05/06 02:43:13;;;;;;;54.08;27.65;;;;;;;-143.53;100.00;58366.03;2085762;28;20227;-65
2022/05/06 02:44:14;;;;;;;48.85;26.88;;;;;;;-143.53;100.00;58366.03;2086820;28;20197;-65
2022/05/06 02:45:16;;;;;;;49.85;27.20;;;;;;;-143.53;100.00;58366.03;2082716;28;20597;-65
2022/05/06 02:46:17;;;;;;;49.78;25.58;;;;;;;-143.53;100.00;58366.03;2077689;28;20640;-65
2022/05/06 02:47:19;;;;;;;57.97;26.88;;;;;;;-143.53;100.00;58366.03;2091482;28;20231;-65
2022/05/06 02:48:20;;;;;;;44.70;26.80;;;;;;;-143.53;100.00;58366.03;2087365;28;20200;-65
2022/05/06 02:49:22;;;;;;;53.95;26.80;;;;;;;-143.53;100.00;58366.03;2086333;28;20204;-65
2022/05/06 02:50:24;;;;;;;55.08;27.80;;;;;;;-143.53;100.00;58366.03;2084560;28;20679;-65
2022/05/06 02:51:28;;;;;;;60.15;28.30;;;;;;;-143.53;100.00;58366.03;2075426;28;20259;-65
2022/05/06 02:52:30;;;;;;;51.25;26.98;;;;;;;-143.53;100.00;58366.03;2087266;28;20200;-65
2022/05/06 02:53:31;;;;;;;52.10;25.58;;;;;;;-143.53;100.00;58366.03;2083264;28;20200;-65
2022/05/06 02:54:33;;;;;;;54.92;28.20;;;;;;;-143.53;100.00;58366.03;2085854;28;20223;-65
2022/05/06 02:55:34;;;;;;;45.85;26.80;;;;;;;-143.53;100.00;58366.03;2082210;28;20197;-65
2022/05/06 02:56:36;;;;;;;45.30;27.33;;;;;;;-143.53;100.00;58366.03;2081827;28;20231;-65
2022/05/06 02:57:37;;;;;;;44.17;25.33;;;;;;;-143.53;100.00;58366.03;2092802;28;20193;-65
2022/05/06 02:58:38;;;;;;;61.97;27.63;;;;;;;-143.53;100.00;58366.03;2084643;28;20190;-65
2022/05/06 02:59:40;;;;;;;49.50;26.67;;;;;;;-143.53;100.00;58366.03;2084368;28;20203;-65
2022/05/06 03:00:43;;;;;;;52.15;27.75;;;;;;;-143.53;100.00;58366.03;2084240;28;20197;-64
2022/05/06 03:01:44;;;;;;;39.80;24.73;;;;;;;-143.53;100.00;58366.03;2086528;28;20215;-65
2022/05/06 03:02:46;;;;;;;45.50;26.85;;;;;;;-143.53;100.00;58366.03;2086802;28;20869;-65
2022/05/06 03:03:48;;;;;;;51.47;28.77;;;;;;;-143.53;100.00;58366.03;2083933;28;20203;-65
2022/05/06 03:04:49;;;;;;;49.95;27.25;;;;;;;-143.53;100.00;58366.03;2084140;28;20553;-65
2022/05/06 03:05:51;;;;;;;49.42;27.65;;;;;;;-143.53;100.00;58366.03;2074383;28;20197;-65
2022/05/06 03:06:52;;;;;;;49.35;26.15;;;;;;;-143.53;100.00;58366.03;2092801;28;20594;-65
2022/05/06 03:07:54;;;;;;;57.63;27.08;;;;;;;-143.53;100.00;58366.03;2089681;28;20200;-65
2022/05/06 03:08:55;;;;;;;49.47;26.77;;;;;;;-143.53;100.00;58366.03;2086487;28;20207;-66
2022/05/06 03:09:57;;;;;;;40.45;26.00;;;;;;;-143.53;100.00;58366.03;2082951;28;20197;-65
2022/05/06 03:10:59;;;;;;;63.70;27.05;;;;;;;-143.53;100.00;58366.03;2074619;28;20235;-65
2022/05/06 03:12:01;;;;;;;51.70;27.65;;;;;;;-143.53;100.00;58366.03;2092233;28;20211;-65
2022/05/06 03:13:03;;;;;;;48.35;26.30;;;;;;;-143.53;100.00;58366.03;2090839;28;20207;-66
2022/05/06 03:14:05;;;;;;;45.22;26.27;;;;;;;-143.53;100.00;58366.03;2085497;28;20197;-65
2022/05/06 03:15:07;;;;;;;56.35;27.23;;;;;;;-143.53;100.00;58366.03;2083199;28;20202;-65
2022/05/06 03:16:09;;;;;;;49.60;26.73;;;;;;;-143.53;100.00;58366.03;2073436;28;20221;-65
2022/05/06 03:17:10;;;;;;;50.97;26.70;;;;;;;-143.53;100.00;58366.03;2087491;28;20227;-65
2022/05/06 03:18:12;;;;;;;52.78;25.08;;;;;;;-143.53;100.00;58366.03;2085848;28;20203;-65
2022/05/06 03:19:13;;;;;;;42.42;25.40;;;;;;;-143.53;100.00;58366.03;2084485;28;20572;-65
2022/05/06 03:20:15;;;;;;;53.03;24.88;;;;;;;-143.53;100.00;58366.03;2084133;28;20197;-65
2022/05/06 03:21:16;;;;;;;42.72;24.88;;;;;;;-143.53;100.00;58366.03;2079224;28;20217;-65
2022/05/06 03:22:18;;;;;;;40.50;23.00;;;;;;;-143.53;100.00;58366.03;2092261;28;20206;-66
2022/05/06 03:23:20;;;;;;;39.22;24.33;;;;;;;-143.53;100.00;58366.03;2086536;28;20202;-66
2022/05/06 03:24:22;;;;;;;38.72;22.67;;;;;;;-143.53;100.00;58366.03;2083367;28;20217;-65
2022/05/06 03:25:24;;;;;;;45.15;23.15;;;;;;;-143.53;100.00;58366.03;2086923;28;20725;-65
2022/05/06 03:26:25;;;;;;;39.83;23.73;;;;;;;-143.53;100.00;58366.03;2078546;28;20730;-65
2022/05/06 03:28:48;;;;;;;40.25;22.60;;;;;;;-143.53;100.00;58366.03;2083472;28;20193;-65
2022/05/06 03:29:49;;;;;;;44.10;21.30;;;;;;;-143.53;100.00;58366.03;2081925;28;20207;-65
2022/05/06 03:30:52;;;;;;;41.75;23.23;;;;;;;-143.53;100.00;58366.03;2071847;28;20197;-65
2022/05/06 03:31:53;;;;;;;50.90;23.67;;;;;;;-143.53;100.00;58366.03;2079914;28;20674;-65
2022/05/06 03:32:55;;;;;;;46.10;24.42;;;;;;;-143.53;100.00;58366.03;2080041;28;20202;-65
2022/05/06 03:33:58;;;;;;;40.47;23.15;;;;;;;-143.53;100.00;58366.03;2083777;28;20201;-66
2022/05/06 03:35:00;;;;;;;53.95;23.90;;;;;;;-143.53;100.00;58366.03;2083402;28;20198;-65
2022/05/06 03:36:01;;;;;;;41.53;21.20;;;;;;;-143.53;100.00;58366.03;2074573;28;20198;-65
2022/05/06 03:37:03;;;;;;;40.80;21.83;;;;;;;-143.53;100.00;58366.03;2085684;28;20695;-65
2022/05/06 03:38:06;;;;;;;33.78;21.02;;;;;;;-143.53;100.00;58366.03;2085919;28;20213;-65
2022/05/06 03:39:07;;;;;;;47.05;22.77;;;;;;;-143.53;100.00;58366.03;2083104;28;20198;-65
2022/05/06 03:40:09;;;;;;;39.83;22.30;;;;;;;-143.53;100.00;58366.03;2087652;28;20200;-65
2022/05/06 03:41:11;;;;;;;32.97;20.00;;;;;;;-143.53;100.00;58366.03;2076099;28;20221;-65
2022/05/06 03:42:13;;;;;;;32.50;20.65;;;;;;;-143.53;100.00;58366.03;2088114;28;20206;-65
2022/05/06 03:43:15;;;;;;;36.95;21.45;;;;;;;-143.53;100.00;58366.03;2086687;28;20205;-65
2022/05/06 03:44:16;;;;;;;36.28;21.65;;;;;;;-143.53;100.00;58366.03;2083470;28;20224;-66
2022/05/06 03:45:18;;;;;;;31.90;19.95;;;;;;;-143.53;100.00;58366.03;2082540;28;20202;-65
2022/05/06 03:46:20;;;;;;;34.08;20.02;;;;;;;-143.53;100.00;58366.03;2075371;28;20310;-65
2022/05/06 03:47:21;;;;;;;29.40;19.35;;;;;;;-143.53;100.00;58366.03;2078174;28;20197;-65
2022/05/06 03:48:24;;;;;;;37.50;21.00;;;;;;;-143.53;100.00;58366.03;2081776;28;20233;-65
2022/05/06 03:49:26;;;;;;;35.35;19.90;;;;;;;-143.53;100.00;58366.03;2084703;28;20200;-65
2022/05/06 03:51:49;;;;;;;34.55;19.45;;;;;;;-143.53;100.00;58366.03;2083980;28;20743;-65
2022/05/06 03:52:51;;;;;;;35.42;19.90;;;;;;;-143.53;100.00;58366.03;2083087;28;20193;-65
2022/05/06 03:53:54;;;;;;;36.28;20.38;;;;;;;-143.53;100.00;58366.03;2083341;28;20649;-65
2022/05/06 03:54:56;;;;;;;36.63;20.15;;;;;;;-143.53;100.00;58366.03;2085995;28;20190;-65
2022/05/06 03:55:57;;;;;;;39.30;20.00;;;;;;;-143.53;100.00;58366.03;2074258;28;20206;-65
2022/05/06 03:56:59;;;;;;;30.00;18.52;;;;;;;-143.53;100.00;58366.03;2087422;28;20223;-65
2022/05/06 03:58:00;;;;;;;30.58;19.30;;;;;;;-143.53;100.00;58366.03;2086318;28;20193;-65
2022/05/06 03:59:02;;;;;;;34.53;20.13;;;;;;;-143.53;100.00;58366.03;2083319;28;20333;-65
2022/05/06 04:00:05;;;;;;;34.92;20.77;;;;;;;-143.53;100.00;58366.03;2084097;28;20699;-65
2022/05/06 04:01:10;;;;;;;29.42;19.42;;;;;;;-143.53;100.00;58366.03;2074659;28;20227;-65
2022/05/06 04:02:11;;;;;;;36.35;19.83;;;;;;;-143.53;100.00;58366.03;2087643;28;20201;-65
2022/05/06 04:03:13;;;;;;;29.25;18.65;;;;;;;-143.53;100.00;58366.03;2081460;28;20197;-65
2022/05/06 04:04:15;;;;;;;35.47;19.15;;;;;;;-143.53;100.00;58366.03;2083686;28;20545;-66
2022/05/06 04:05:16;;;;;;;37.83;20.35;;;;;;;-143.53;100.00;58366.03;2082482;28;20220;-66
2022/05/06 04:06:18;;;;;;;39.38;19.77;;;;;;;-143.53;100.00;58366.03;2069484;28;20259;-66
2022/05/06 04:07:19;;;;;;;35.33;19.63;;;;;;;-143.53;100.00;58366.03;2079557;28;20200;-66
2022/05/06 04:08:21;;;;;;;34.85;20.27;;;;;;;-143.53;100.00;58366.03;2085000;28;20196;-66
2022/05/06 04:09:22;;;;;;;42.08;22.20;;;;;;;-143.53;100.00;58366.03;2083504;28;20192;-66
2022/05/06 04:10:24;;;;;;;39.80;21.02;;;;;;;-143.53;100.00;58366.03;2084462;28;20686;-66
2022/05/06 04:11:25;;;;;;;39.00;21.17;;;;;;;-143.53;100.00;58366.03;2077093;28;20234;-65
2022/05/06 04:12:27;;;;;;;45.03;20.75;;;;;;;-143.53;100.00;58366.03;2086915;28;20212;-65
2022/05/06 04:13:28;;;;;;;36.30;20.63;;;;;;;-143.53;100.00;58366.03;2083695;28;20197;-64
2022/05/06 04:14:30;;;;;;;38.58;21.67;;;;;;;-143.53;100.00;58366.03;2082935;28;20666;-65
2022/05/06 04:15:32;;;;;;;41.33;22.63;;;;;;;-143.53;100.00;58366.03;2082275;28;20199;-65
2022/05/06 04:16:34;;;;;;;36.13;21.85;;;;;;;-143.53;100.00;58366.03;2074949;28;20220;-64
2022/05/06 04:17:35;;;;;;;33.28;22.27;;;;;;;-143.53;100.00;58366.03;2090293;28;20216;-64
2022/05/06 04:18:37;;;;;;;38.10;20.50;;;;;;;-143.53;100.00;58366.03;2083295;28;20244;-65
2022/05/06 04:23:29;;;;;;;37.30;22.38;;;;;;;-143.53;100.00;58366.03;2084387;28;20649;-64
2022/05/06 04:23:39;;;;;;;32.65;20.92;;;;;;;-143.53;100.00;58366.03;2084019;28;20581;-65
2022/05/06 04:24:41;;;;;;;47.35;23.60;;;;;;;-143.53;100.00;58366.03;2084310;28;20197;-64
2022/05/06 04:25:42;;;;;;;36.00;23.38;;;;;;;-143.53;100.00;58366.03;2081152;28;20194;-64
2022/05/06 04:26:44;;;;;;;37.28;22.42;;;;;;;-143.53;100.00;58366.03;2086458;28;20224;-64
2022/05/06 04:27:45;;;;;;;40.53;23.85;;;;;;;-143.53;100.00;58366.03;2087020;28;20209;-64
2022/05/06 04:28:47;;;;;;;37.53;23.10;;;;;;;-143.53;100.00;58366.03;2084754;28;20189;-65
2022/05/06 04:29:48;;;;;;;43.72;23.02;;;;;;;-143.53;100.00;58366.03;2085902;28;20202;-65
2022/05/06 04:30:52;;;;;;;36.35;20.92;;;;;;;-143.53;100.00;58366.03;2073936;28;20208;-65
2022/05/06 04:31:54;;;;;;;43.42;22.50;;;;;;;-143.53;100.00;58366.03;2087540;28;20206;-65
2022/05/06 04:32:55;;;;;;;36.30;21.52;;;;;;;-143.53;100.00;58366.03;2082826;28;20549;-65
2022/05/06 04:33:57;;;;;;;35.30;21.52;;;;;;;-143.53;100.00;58366.03;2081775;28;20557;-65
2022/05/06 04:35:00;;;;;;;35.88;21.13;;;;;;;-143.53;100.00;58366.03;2083466;28;20200;-65
2022/05/06 04:36:03;;;;;;;48.28;23.70;;;;;;;-143.53;100.00;58366.03;2078653;28;20628;-65
2022/05/06 04:37:06;;;;;;;37.63;20.52;;;;;;;-143.53;100.00;58366.03;2093685;28;20191;-65
2022/05/06 04:38:08;;;;;;;35.40;21.27;;;;;;;-143.53;100.00;58366.03;2084679;28;20758;-65
2022/05/06 04:39:09;;;;;;;40.15;23.08;;;;;;;-143.53;100.00;58366.03;2083547;28;20201;-65
2022/05/06 04:40:11;;;;;;;36.55;22.63;;;;;;;-143.53;100.00;58366.03;2082825;28;20201;-66
2022/05/06 04:41:13;;;;;;;41.45;22.15;;;;;;;-143.53;100.00;58366.03;2075082;28;20224;-65
2022/05/06 04:42:17;;;;;;;39.28;24.17;;;;;;;-143.53;100.00;58366.03;2086907;28;20640;-65
2022/05/06 04:43:20;;;;;;;47.30;22.42;;;;;;;-143.53;100.00;58366.03;2080904;28;20193;-65
2022/05/06 04:44:22;;;;;;;44.03;24.23;;;;;;;-143.53;100.00;58366.03;2083721;28;20203;-65
2022/05/06 04:45:23;;;;;;;48.40;25.83;;;;;;;-143.53;100.00;58366.03;2083472;28;20202;-65
2022/05/06 04:46:25;;;;;;;40.83;24.58;;;;;;;-143.53;100.00;58366.03;2079384;28;20222;-65
2022/05/06 04:47:26;;;;;;;43.58;23.92;;;;;;;-143.53;100.00;58366.03;2092641;28;20237;-65
2022/05/06 04:48:29;;;;;;;41.38;22.98;;;;;;;-143.53;100.00;58366.03;2085951;28;20212;-65
2022/05/06 04:49:30;;;;;;;42.30;24.98;;;;;;;-143.53;100.00;58366.03;2079155;28;20244;-65
2022/05/06 04:50:33;;;;;;;43.92;24.25;;;;;;;-143.53;100.00;58366.03;2078528;28;20228;-65